Time;durP1;ratioP1;P1;durP2;ratioP2;P2;SDS_P1;SDS_P2;PMS_P1;PMS_P2;Temp;Humidity;BMP_temperature;BMP_pressure;BME280_temperature;BME280_humidity;BME280_pressure;Samples;Min_cycle;Max_cycle;Signal;HPM_P1;HPM_P2
2024/01/29 00:01:38;;;;;;;13.77;9.48;;;;;;;3.78;63.58;96170.91;4188899;28;20093;-66
2024/01/29 00:03:43;;;;;;;14.85;9.10;;;;;;;3.84;62.83;96168.00;4191659;28;20049;-70
2024/01/29 00:05:45;;;;;;;12.35;10.02;;;;;;;3.88;63.29;96177.28;4178099;28;20060;-68
2024/01/29 00:07:47;;;;;;;13.57;9.10;;;;;;;3.91;62.62;96171.94;4188311;28;20136;-67
2024/01/29 00:09:49;;;;;;;12.38;9.38;;;;;;;3.97;62.39;96178.56;4185918;28;20048;-68
2024/01/29 00:11:51;;;;;;;15.90;9.68;;;;;;;4.00;62.83;96179.22;4185684;28;20049;-68
2024/01/29 00:13:53;;;;;;;13.23;9.25;;;;;;;3.96;62.98;96180.31;4185809;28;20048;-66
2024/01/29 00:15:56;;;;;;;12.63;9.25;;;;;;;4.03;62.46;96184.25;4183094;28;20080;-66
2024/01/29 00:17:58;;;;;;;13.80;9.27;;;;;;;4.03;62.36;96189.44;4187351;28;20052;-67
2024/01/29 00:20:01;;;;;;;14.00;9.40;;;;;;;4.00;62.86;96188.75;4189402;28;20063;-65
2024/01/29 00:22:04;;;;;;;11.88;9.18;;;;;;;3.96;62.65;96180.31;4173722;28;20056;-67
2024/01/29 00:24:06;;;;;;;14.23;9.40;;;;;;;4.05;62.51;96176.38;4187155;28;20045;-68
2024/01/29 00:26:09;;;;;;;11.57;9.27;;;;;;;3.96;62.33;96182.03;4192190;28;20628;-66
2024/01/29 00:28:12;;;;;;;11.43;8.30;;;;;;;3.93;62.99;96185.66;4183459;28;20232;-66
2024/01/29 00:30:14;;;;;;;13.27;9.53;;;;;;;3.93;62.62;96182.22;4189045;28;20065;-67
2024/01/29 00:32:16;;;;;;;12.48;9.63;;;;;;;3.92;62.33;96184.00;4178867;28;20113;-66
2024/01/29 00:34:19;;;;;;;11.98;9.35;;;;;;;3.98;62.42;96182.81;4191654;28;20123;-67
2024/01/29 00:36:21;;;;;;;12.80;9.32;;;;;;;3.98;62.81;96193.19;4192013;28;20064;-67
2024/01/29 00:38:23;;;;;;;12.13;8.30;;;;;;;4.03;62.41;96197.22;4193918;28;20550;-66
2024/01/29 00:40:25;;;;;;;14.35;8.95;;;;;;;4.02;62.08;96195.53;4193811;28;20048;-67
2024/01/29 00:42:28;;;;;;;11.35;8.55;;;;;;;4.07;62.02;96192.69;4192122;28;20078;-67
2024/01/29 00:44:30;;;;;;;12.80;9.45;;;;;;;4.02;62.42;96194.69;4181749;28;20057;-67
2024/01/29 00:46:32;;;;;;;12.18;9.48;;;;;;;4.01;62.77;96186.06;4189438;28;20063;-66
2024/01/29 00:48:34;;;;;;;13.10;9.27;;;;;;;3.98;62.62;96188.84;4187441;28;20059;-66
2024/01/29 00:50:36;;;;;;;17.90;10.07;;;;;;;3.98;63.04;96194.03;4195542;28;20629;-67
2024/01/29 00:52:39;;;;;;;10.95;8.25;;;;;;;3.95;62.53;96201.13;4191750;28;20076;-66
2024/01/29 00:54:41;;;;;;;12.35;8.93;;;;;;;3.95;62.96;96203.72;4193799;28;20106;-68
2024/01/29 00:56:43;;;;;;;9.60;8.32;;;;;;;3.92;62.44;96202.13;4182694;28;20048;-67
2024/01/29 00:58:46;;;;;;;11.05;8.98;;;;;;;3.96;62.97;96200.19;4193658;28;20040;-68
2024/01/29 01:00:48;;;;;;;11.73;8.88;;;;;;;3.80;63.25;96202.78;4193994;28;20187;-68
2024/01/29 01:02:50;;;;;;;14.10;9.15;;;;;;;3.76;63.64;96204.69;4189797;28;20502;-69
2024/01/29 01:04:54;;;;;;;14.68;9.23;;;;;;;3.73;63.37;96201.44;4195019;28;20096;-68
2024/01/29 01:06:56;;;;;;;11.25;8.80;;;;;;;3.74;63.04;96206.50;4191255;28;20537;-68
2024/01/29 01:08:58;;;;;;;12.50;9.07;;;;;;;3.34;64.31;96202.56;4185918;28;20048;-67
2024/01/29 01:11:00;;;;;;;12.73;8.88;;;;;;;3.38;64.95;96204.94;4187364;28;20058;-68
2024/01/29 01:13:03;;;;;;;10.88;8.88;;;;;;;3.39;64.81;96208.34;4195577;28;20479;-65
2024/01/29 01:15:06;;;;;;;12.38;9.27;;;;;;;3.06;64.79;96199.63;4191991;28;20102;-67
2024/01/29 01:17:08;;;;;;;12.25;9.32;;;;;;;3.06;65.70;96203.97;4185882;28;20360;-67
2024/01/29 01:19:10;;;;;;;13.57;9.20;;;;;;;3.09;65.54;96206.38;4186395;28;20045;-66
2024/01/29 01:21:12;;;;;;;13.93;9.43;;;;;;;3.11;66.14;96201.97;4187262;28;20052;-68
2024/01/29 01:23:14;;;;;;;13.52;8.70;;;;;;;3.11;65.39;96206.31;4194693;28;20072;-67
2024/01/29 01:25:16;;;;;;;10.45;8.63;;;;;;;3.10;65.89;96202.91;4186285;28;20067;-66
2024/01/29 01:27:18;;;;;;;14.70;10.10;;;;;;;3.19;65.61;96201.59;4180638;28;20082;-67
2024/01/29 01:29:20;;;;;;;14.55;9.35;;;;;;;3.18;65.20;96202.50;4181811;28;20378;-67
2024/01/29 01:31:22;;;;;;;13.35;8.95;;;;;;;3.20;65.24;96200.66;4183870;28;20052;-65
2024/01/29 01:33:24;;;;;;;12.95;9.57;;;;;;;3.21;65.27;96199.78;4187713;28;20052;-66
2024/01/29 01:35:26;;;;;;;11.88;9.13;;;;;;;3.10;65.89;96195.13;4192712;28;20049;-67
2024/01/29 01:37:28;;;;;;;15.32;9.57;;;;;;;3.10;65.83;96192.53;4193193;28;20056;-66
2024/01/29 01:39:31;;;;;;;12.88;9.27;;;;;;;3.14;65.40;96191.47;4186172;28;20049;-66
2024/01/29 01:41:33;;;;;;;11.87;9.53;;;;;;;3.21;65.28;96187.66;4191236;28;20131;-66
2024/01/29 01:43:34;;;;;;;12.60;9.30;;;;;;;3.26;65.24;96183.06;4194513;28;20045;-68
2024/01/29 01:45:36;;;;;;;12.35;9.50;;;;;;;3.33;65.17;96185.34;4180974;28;20056;-66
2024/01/29 01:47:39;;;;;;;12.38;9.20;;;;;;;3.39;64.96;96185.03;4186097;28;20078;-67
2024/01/29 01:49:41;;;;;;;13.75;9.77;;;;;;;3.44;64.73;96181.31;4187436;28;20068;-68
2024/01/29 01:51:44;;;;;;;12.75;8.70;;;;;;;3.43;64.43;96186.56;4182177;28;20040;-66
2024/01/29 01:53:50;;;;;;;15.45;9.98;;;;;;;3.42;64.72;96184.88;4184794;28;20056;-66
2024/01/29 01:55:54;;;;;;;13.15;9.32;;;;;;;3.41;64.81;96184.03;4189723;28;20110;-66
2024/01/29 01:57:57;;;;;;;14.55;8.98;;;;;;;3.44;64.83;96188.22;4194707;28;20040;-67
2024/01/29 01:59:59;;;;;;;13.48;9.52;;;;;;;3.45;64.73;96190.75;4187414;28;20103;-67
2024/01/29 02:02:02;;;;;;;11.35;8.75;;;;;;;3.55;64.73;96187.66;4192522;28;20041;-67
2024/01/29 02:04:05;;;;;;;11.38;8.75;;;;;;;3.61;64.29;96187.34;4187165;28;20494;-68
2024/01/29 02:06:07;;;;;;;11.98;9.70;;;;;;;3.63;63.53;96188.94;4190538;28;20494;-67
2024/01/29 02:08:09;;;;;;;11.30;8.93;;;;;;;3.71;64.04;96192.91;4184642;28;20467;-67
2024/01/29 02:10:12;;;;;;;12.32;9.13;;;;;;;3.73;63.66;96188.47;4193003;28;20067;-68
2024/01/29 02:12:15;;;;;;;11.02;9.00;;;;;;;3.55;63.69;96196.28;4185819;28;20044;-68
2024/01/29 02:14:17;;;;;;;15.10;9.63;;;;;;;3.52;64.04;96191.25;4191043;28;20092;-66
2024/01/29 02:16:19;;;;;;;10.80;9.20;;;;;;;3.52;64.63;96196.44;4186664;28;20103;-68
2024/01/29 02:18:21;;;;;;;13.20;8.93;;;;;;;3.57;64.32;96198.78;4178687;28;20057;-67
2024/01/29 02:20:23;;;;;;;13.38;9.40;;;;;;;3.65;63.61;96192.28;4188321;28;20498;-67
2024/01/29 02:22:25;;;;;;;13.07;9.15;;;;;;;3.69;63.96;96195.56;4191588;28;20044;-66
2024/01/29 02:24:27;;;;;;;12.23;8.95;;;;;;;3.76;63.04;96193.47;4181626;28;20430;-67
2024/01/29 02:26:30;;;;;;;12.32;8.50;;;;;;;3.77;63.53;96188.22;4190521;28;20113;-68
2024/01/29 02:28:34;;;;;;;11.63;8.63;;;;;;;3.77;63.23;96192.59;4192109;28;20089;-66
2024/01/29 02:30:37;;;;;;;12.40;8.82;;;;;;;3.73;62.94;96193.66;4181759;28;20048;-66
2024/01/29 02:32:39;;;;;;;11.98;9.18;;;;;;;3.75;63.46;96186.63;4188592;28;20048;-66
2024/01/29 02:34:41;;;;;;;14.57;9.70;;;;;;;3.76;62.98;96194.31;4181950;28;20048;-67
2024/01/29 02:36:43;;;;;;;15.23;8.98;;;;;;;3.72;63.14;96197.16;4187697;28;20044;-67
2024/01/29 02:38:45;;;;;;;11.40;8.55;;;;;;;3.72;63.22;96186.78;4189852;28;20458;-67
2024/01/29 02:40:47;;;;;;;10.85;8.60;;;;;;;3.80;63.45;96193.25;4188410;28;20048;-67
2024/01/29 02:42:49;;;;;;;10.75;8.90;;;;;;;3.85;62.70;96188.66;4188484;28;20600;-67
2024/01/29 02:44:51;;;;;;;12.85;9.75;;;;;;;3.91;62.85;96195.25;4190054;28;20048;-67
2024/01/29 02:46:53;;;;;;;14.75;9.52;;;;;;;3.91;62.86;96195.25;4184468;28;20487;-66
2024/01/29 02:48:55;;;;;;;10.68;8.65;;;;;;;3.98;62.72;96195.78;4188364;28;20199;-67
2024/01/29 02:50:57;;;;;;;10.63;8.30;;;;;;;3.98;62.20;96201.81;4191155;28;20451;-67
2024/01/29 02:52:59;;;;;;;12.85;8.68;;;;;;;3.92;61.79;96202.13;4193284;28;20051;-66
2024/01/29 02:55:01;;;;;;;14.07;9.25;;;;;;;3.89;62.34;96202.28;4188144;28;20570;-68
2024/01/29 02:57:05;;;;;;;12.25;9.23;;;;;;;3.92;62.55;96204.72;4186126;28;20044;-66
2024/01/29 02:59:08;;;;;;;17.10;9.52;;;;;;;3.92;62.10;96202.13;4188133;28;20380;-67
2024/01/29 03:01:12;;;;;;;10.23;8.57;;;;;;;3.92;61.80;96207.31;4190475;28;20464;-68
2024/01/29 03:03:14;;;;;;;14.00;9.50;;;;;;;3.69;62.38;96208.53;4192291;28;20128;-69
2024/01/29 03:05:16;;;;;;;12.68;9.32;;;;;;;3.55;63.49;96198.88;4191483;28;20075;-66
2024/01/29 03:07:18;;;;;;;12.80;9.52;;;;;;;3.40;63.33;96202.25;4189654;28;20461;-67
2024/01/29 03:09:20;;;;;;;13.02;10.05;;;;;;;3.16;65.04;96202.59;4191706;28;20536;-69
2024/01/29 03:11:22;;;;;;;13.32;9.63;;;;;;;3.16;64.78;96194.81;4189139;28;20099;-68
2024/01/29 03:13:25;;;;;;;14.55;9.75;;;;;;;2.95;65.39;96201.06;4190483;28;20052;-67
2024/01/29 03:15:27;;;;;;;15.25;10.57;;;;;;;2.71;66.23;96201.34;4191354;28;20383;-68
2024/01/29 03:17:29;;;;;;;13.63;9.63;;;;;;;2.88;66.74;96192.75;4188291;28;20361;-66
2024/01/29 03:19:31;;;;;;;14.27;10.10;;;;;;;2.91;65.77;96191.78;4192397;28;20065;-66
2024/01/29 03:21:33;;;;;;;14.60;10.40;;;;;;;2.99;65.42;96192.22;4192034;28;20047;-66
2024/01/29 03:23:35;;;;;;;14.73;9.90;;;;;;;2.90;65.85;96192.69;4193266;28;20518;-66
2024/01/29 03:25:37;;;;;;;13.45;10.23;;;;;;;2.75;66.22;96195.09;4188025;28;20048;-67
2024/01/29 03:27:39;;;;;;;12.05;10.38;;;;;;;2.63;66.61;96193.94;4190952;28;20118;-67
2024/01/29 03:29:41;;;;;;;13.27;9.77;;;;;;;2.74;67.01;96190.84;4183166;28;20662;-67
2024/01/29 03:31:43;;;;;;;15.77;10.18;;;;;;;2.45;66.93;96193.09;4190226;28;20152;-66
2024/01/29 03:33:45;;;;;;;21.60;15.70;;;;;;;2.54;66.86;96193.53;4192382;28;20701;-67
2024/01/29 03:35:47;;;;;;;14.10;10.23;;;;;;;2.62;66.88;96194.00;4192814;28;20057;-66
2024/01/29 03:37:49;;;;;;;16.70;12.55;;;;;;;2.70;66.24;96193.66;4193310;28;20048;-68
2024/01/29 03:39:51;;;;;;;13.48;9.93;;;;;;;2.70;66.39;96193.66;4185961;28;20128;-67
2024/01/29 03:41:54;;;;;;;13.57;9.63;;;;;;;2.62;66.46;96194.88;4177508;28;20041;-66
2024/01/29 03:43:56;;;;;;;13.55;10.45;;;;;;;2.34;67.43;96205.66;4190326;28;20156;-67
2024/01/29 03:45:58;;;;;;;13.75;10.43;;;;;;;2.14;67.81;96198.84;4187827;28;20045;-68
2024/01/29 03:48:01;;;;;;;17.80;12.13;;;;;;;1.94;68.51;96211.88;4193172;28;20118;-68
2024/01/29 03:50:05;;;;;;;18.88;13.00;;;;;;;1.82;69.29;96202.91;4192251;28;20122;-67
2024/01/29 03:52:08;;;;;;;18.98;12.45;;;;;;;1.81;69.56;96204.66;4192292;28;20436;-67
2024/01/29 03:54:10;;;;;;;22.00;12.27;;;;;;;2.04;69.64;96205.34;4192176;28;20098;-67
2024/01/29 03:56:12;;;;;;;17.27;11.82;;;;;;;2.29;69.14;96196.47;4173428;28;20052;-68
2024/01/29 03:58:14;;;;;;;16.02;11.82;;;;;;;2.48;68.03;96197.28;4192559;28;20092;-66
2024/01/29 04:00:18;;;;;;;15.23;11.93;;;;;;;2.65;67.46;96189.53;4192026;28;20048;-67
2024/01/29 04:02:23;;;;;;;15.85;13.05;;;;;;;2.66;66.97;96191.19;4191416;28;20067;-68
2024/01/29 04:04:25;;;;;;;14.10;11.77;;;;;;;2.58;66.67;96189.91;4182639;28;20597;-68
2024/01/29 04:06:27;;;;;;;17.65;12.55;;;;;;;2.67;67.12;96197.25;4188257;28;20808;-67
2024/01/29 04:08:29;;;;;;;16.98;13.00;;;;;;;2.75;66.63;96195.09;4190955;28;20220;-67
2024/01/29 04:10:33;;;;;;;15.52;12.93;;;;;;;2.85;66.72;96183.38;4188753;28;20052;-69
2024/01/29 04:12:35;;;;;;;15.18;12.18;;;;;;;2.93;66.17;96184.78;4192423;28;20048;-69
2024/01/29 04:14:37;;;;;;;15.25;11.40;;;;;;;2.85;65.76;96191.16;4194579;28;20048;-67
2024/01/29 04:16:39;;;;;;;14.57;11.60;;;;;;;2.91;66.07;96191.78;4193610;28;20523;-67
2024/01/29 04:18:45;;;;;;;18.65;12.82;;;;;;;3.07;66.28;96193.50;4196309;28;20384;-66
2024/01/29 04:20:49;;;;;;;16.17;12.02;;;;;;;3.16;65.01;96202.59;4195964;28;20080;-66
2024/01/29 04:22:53;;;;;;;17.45;12.90;;;;;;;3.22;65.60;96194.50;4192735;28;20056;-67
2024/01/29 04:24:55;;;;;;;16.67;12.50;;;;;;;3.30;64.99;96193.28;4194788;28;20071;-67
2024/01/29 04:26:57;;;;;;;14.68;11.70;;;;;;;3.38;65.08;96204.09;4190931;28;20300;-66
2024/01/29 04:28:59;;;;;;;15.63;11.68;;;;;;;3.37;64.81;96198.06;4191790;28;20051;-66
2024/01/29 04:31:01;;;;;;;18.67;13.00;;;;;;;3.42;64.79;96208.19;4175727;28;20087;-68
2024/01/29 04:33:09;;;;;;;14.70;12.00;;;;;;;3.49;64.73;96212.16;4193020;28;20045;-66
2024/01/29 04:35:11;;;;;;;16.05;11.98;;;;;;;3.51;64.47;96210.31;4196081;28;20516;-67
2024/01/29 04:37:14;;;;;;;14.95;11.73;;;;;;;3.52;64.36;96213.75;4194518;28;20055;-66
2024/01/29 04:39:16;;;;;;;14.48;11.80;;;;;;;3.58;64.23;96216.84;4186755;28;20562;-66
2024/01/29 04:41:18;;;;;;;15.35;11.30;;;;;;;3.67;64.18;96223.31;4194870;28;20053;-67
2024/01/29 04:43:20;;;;;;;15.55;11.75;;;;;;;3.73;63.82;96215.22;4192932;28;20078;-66
2024/01/29 04:45:23;;;;;;;18.50;12.25;;;;;;;3.61;63.85;96221.88;4187518;28;20398;-65
2024/01/29 04:47:26;;;;;;;14.27;11.75;;;;;;;3.59;64.00;96226.31;4193087;28;20048;-69
2024/01/29 04:49:28;;;;;;;17.50;12.70;;;;;;;3.54;64.62;96220.50;4185640;28;20052;-70
2024/01/29 04:51:30;;;;;;;16.98;12.23;;;;;;;3.56;65.41;96234.22;4191483;28;20063;-66
2024/01/29 04:53:33;;;;;;;17.10;13.20;;;;;;;3.53;64.80;96234.41;4186738;28;20209;-68
2024/01/29 04:55:34;;;;;;;18.55;13.45;;;;;;;3.54;65.52;96230.88;4193085;28;20466;-68
2024/01/29 04:57:36;;;;;;;22.77;14.55;;;;;;;3.48;65.49;96232.06;4190769;28;20059;-67
2024/01/29 04:59:38;;;;;;;17.73;14.45;;;;;;;3.42;65.98;96236.69;4187801;28;20095;-68
2024/01/29 05:01:40;;;;;;;20.05;15.23;;;;;;;3.51;66.18;96241.41;4188704;28;20556;-69
2024/01/29 05:03:43;;;;;;;19.30;14.90;;;;;;;3.55;65.64;96247.25;4191816;28;20053;-71
2024/01/29 05:05:49;;;;;;;16.98;14.55;;;;;;;3.39;65.50;96242.03;4195691;28;20475;-68
2024/01/29 05:07:51;;;;;;;21.05;14.88;;;;;;;3.42;65.95;96250.50;4182571;28;20395;-69
2024/01/29 05:09:54;;;;;;;19.35;15.30;;;;;;;3.21;66.38;96248.97;4189272;28;20229;-70
2024/01/29 05:11:57;;;;;;;;;;;;;;;3.12;67.12;96259.75;4193200;28;20498;-71
2024/01/29 05:14:02;;;;;;;23.17;13.93;;;;;;;3.03;67.26;96256.75;4182975;28;20011;-69
2024/01/29 05:16:06;;;;;;;17.52;14.02;;;;;;;2.96;67.38;96257.94;4184811;28;20045;-68
2024/01/29 05:18:08;;;;;;;20.98;13.93;;;;;;;2.99;67.60;96262.13;4192437;28;20142;-68
2024/01/29 05:20:11;;;;;;;19.08;14.93;;;;;;;3.10;67.53;96257.28;4192220;28;20118;-70
2024/01/29 05:22:13;;;;;;;18.58;13.82;;;;;;;3.08;67.27;96252.16;4192445;28;20419;-68
2024/01/29 05:24:15;;;;;;;15.70;12.80;;;;;;;3.17;66.90;96258.63;4193579;28;20053;-68
2024/01/29 05:26:17;;;;;;;18.77;13.10;;;;;;;3.32;66.94;96262.22;4192853;28;20055;-68
2024/01/29 05:28:19;;;;;;;17.90;13.27;;;;;;;3.34;66.28;96256.97;4193434;28;20040;-69
2024/01/29 05:30:23;;;;;;;16.27;12.73;;;;;;;3.31;66.01;96257.94;4190698;28;20468;-68
2024/01/29 05:32:25;;;;;;;16.20;12.68;;;;;;;3.34;65.88;96255.22;4189099;28;20076;-68
2024/01/29 05:34:27;;;;;;;15.07;11.65;;;;;;;3.36;65.67;96260.31;4194334;28;20074;-70
2024/01/29 05:36:29;;;;;;;16.92;11.65;;;;;;;3.33;65.48;96269.06;4183982;28;20072;-69
2024/01/29 05:38:34;;;;;;;16.35;11.35;;;;;;;3.20;66.04;96262.81;4192774;28;20522;-70
2024/01/29 05:40:36;;;;;;;14.52;11.88;;;;;;;3.10;65.97;96267.63;4194739;28;20048;-69
2024/01/29 05:42:41;;;;;;;13.27;11.20;;;;;;;2.99;66.53;96272.47;4192754;28;20415;-69
2024/01/29 05:44:44;;;;;;;14.18;11.68;;;;;;;2.97;66.96;96271.69;4188940;28;20041;-69
2024/01/29 05:46:46;;;;;;;14.70;10.98;;;;;;;3.11;66.99;96271.88;4194023;28;20384;-70
2024/01/29 05:48:49;;;;;;;14.52;11.77;;;;;;;3.19;66.44;96274.94;4193862;28;20049;-68
2024/01/29 05:50:52;;;;;;;;;;;;;;;3.17;65.70;96273.34;4209680;28;20549;-71
2024/01/29 05:52:59;;;;;;;16.83;11.13;;;;;;;3.13;66.08;96277.81;4193849;28;19926;-70
2024/01/29 05:55:01;;;;;;;15.33;11.60;;;;;;;3.14;65.99;96278.66;4192403;28;20056;-70
2024/01/29 05:57:04;;;;;;;14.80;11.17;;;;;;;3.10;66.53;96278.00;4183396;28;20415;-67
2024/01/29 05:59:05;;;;;;;17.33;12.20;;;;;;;3.11;66.32;96274.47;4189379;28;20487;-69
2024/01/29 06:01:07;;;;;;;15.98;11.70;;;;;;;3.16;66.27;96277.69;4193250;28;20064;-70
2024/01/29 06:03:10;;;;;;;15.02;11.82;;;;;;;3.22;66.38;96273.94;4194341;28;20513;-70
2024/01/29 06:05:12;;;;;;;17.48;11.85;;;;;;;3.28;65.96;96273.66;4194440;28;20084;-70
2024/01/29 06:07:14;;;;;;;15.93;12.15;;;;;;;3.27;65.72;96277.16;4191727;28;20152;-71
2024/01/29 06:09:17;;;;;;;15.25;12.80;;;;;;;3.24;65.65;96275.53;4183631;28;20106;-71
2024/01/29 06:11:22;;;;;;;15.40;12.10;;;;;;;3.28;65.99;96282.25;4194317;28;20056;-68
2024/01/29 06:13:24;;;;;;;14.40;11.02;;;;;;;3.24;65.29;96280.72;4194066;28;20076;-68
2024/01/29 06:15:27;;;;;;;14.88;12.23;;;;;;;3.18;65.73;96283.59;4188003;28;20479;-69
2024/01/29 06:17:30;;;;;;;18.40;11.47;;;;;;;3.20;66.34;96286.97;4194356;28;20049;-68
2024/01/29 06:19:51;;;;;;;15.23;11.70;;;;;;;3.29;65.83;96283.06;4195239;28;20651;-68
2024/01/29 06:22:13;;;;;;;15.52;11.70;;;;;;;3.27;65.55;96285.78;4190871;28;20045;-70
2024/01/29 06:24:15;;;;;;;17.60;12.00;;;;;;;3.43;66.03;96290.19;4191728;28;20068;-71
2024/01/29 06:26:17;;;;;;;17.65;12.70;;;;;;;3.54;65.66;96292.25;4194101;28;20456;-68
2024/01/29 06:28:19;;;;;;;17.58;12.77;;;;;;;3.41;65.22;96298.03;4190719;28;20085;-71
2024/01/29 06:30:21;;;;;;;15.90;12.50;;;;;;;3.26;65.61;96294.44;4189284;28;20079;-69
2024/01/29 06:32:23;;;;;;;17.40;11.80;;;;;;;3.23;65.99;96297.19;4187725;28;20052;-68
2024/01/29 06:34:26;;;;;;;15.75;11.68;;;;;;;3.22;66.24;96292.91;4186674;28;20497;-68
2024/01/29 06:36:28;;;;;;;14.90;11.75;;;;;;;3.36;65.61;96296.59;4193190;28;20501;-69
2024/01/29 06:38:30;;;;;;;18.48;11.85;;;;;;;3.51;65.56;96293.25;4170414;28;20102;-70
2024/01/29 06:40:32;;;;;;;19.90;13.55;;;;;;;3.57;65.37;96295.53;4176344;28;20061;-70
2024/01/29 06:42:35;;;;;;;12.93;10.38;;;;;;;3.56;64.96;96301.59;4188168;28;20124;-72
2024/01/29 06:44:37;;;;;;;14.43;10.50;;;;;;;3.53;64.76;96304.38;4192004;28;20743;-71
2024/01/29 06:46:39;;;;;;;13.73;11.25;;;;;;;3.60;64.55;96307.47;4177770;28;20127;-69
2024/01/29 06:48:42;;;;;;;13.82;10.63;;;;;;;3.47;64.35;96317.63;4182465;28;20469;-69
2024/01/29 06:50:46;;;;;;;15.82;11.48;;;;;;;3.48;64.46;96308.91;4183505;28;20060;-68
2024/01/29 06:52:48;;;;;;;15.95;11.57;;;;;;;3.47;64.53;96304.66;4192292;28;20520;-69
2024/01/29 06:54:52;;;;;;;21.67;11.77;;;;;;;3.51;64.74;96306.19;4190305;28;20067;-69
2024/01/29 06:56:55;;;;;;;;;;;;;;;3.70;64.56;96306.13;4191988;28;20048;-69
2024/01/29 06:58:57;;;;;;;14.50;11.05;;;;;;;3.72;63.58;96316.38;4188678;28;19974;-68
2024/01/29 07:01:00;;;;;;;14.73;10.93;;;;;;;3.62;63.18;96306.50;4189451;28;20044;-69
2024/01/29 07:03:04;;;;;;;15.50;11.40;;;;;;;3.55;64.34;96318.09;4185266;28;20069;-71
2024/01/29 07:05:06;;;;;;;15.80;11.98;;;;;;;3.56;63.90;96314.56;4192435;28;20045;-69
2024/01/29 07:07:08;;;;;;;15.57;12.68;;;;;;;3.56;63.76;96308.56;4187308;28;20227;-69
2024/01/29 07:12:08;;;;;;;14.10;11.43;;;;;;;3.69;63.99;96309.59;4192657;28;20083;-68
2024/01/29 07:14:13;;;;;;;14.35;10.57;;;;;;;3.80;62.75;96311.66;4189729;28;20135;-69
2024/01/29 07:16:16;;;;;;;17.80;12.38;;;;;;;3.75;63.01;96311.06;4175173;28;20049;-69
2024/01/29 07:18:19;;;;;;;14.27;12.15;;;;;;;3.57;63.04;96311.06;4180922;28;20554;-68
2024/01/29 07:20:21;;;;;;;16.23;11.05;;;;;;;3.56;63.38;96311.97;4192988;28;20479;-69
2024/01/29 07:22:25;;;;;;;14.10;11.48;;;;;;;3.34;63.26;96311.38;4193708;28;20047;-69
2024/01/29 07:24:28;;;;;;;16.85;10.95;;;;;;;3.27;63.43;96314.25;4193333;28;20040;-68
2024/01/29 07:26:30;;;;;;;13.83;11.03;;;;;;;3.06;63.67;96307.53;4191739;28;20490;-69
2024/01/29 07:28:32;;;;;;;16.10;11.35;;;;;;;3.18;63.90;96313.84;4190140;28;20946;-70
2024/01/29 07:30:36;;;;;;;12.85;9.43;;;;;;;3.34;63.53;96311.38;4181044;28;20419;-70
2024/01/29 07:32:38;;;;;;;15.75;10.00;;;;;;;3.53;62.61;96306.94;4193673;28;20040;-69
2024/01/29 07:34:40;;;;;;;12.10;9.88;;;;;;;3.72;61.61;96313.78;4192323;28;20306;-72
2024/01/29 07:36:42;;;;;;;11.45;9.52;;;;;;;3.85;61.29;96312.25;4192970;28;20051;-70
2024/01/29 07:38:44;;;;;;;14.73;11.07;;;;;;;3.41;61.96;96323.09;4182848;28;20052;-69
2024/01/29 07:40:46;;;;;;;15.77;10.55;;;;;;;3.10;62.39;96318.56;4191141;28;20535;-71
2024/01/29 07:42:48;;;;;;;16.85;10.95;;;;;;;2.98;62.96;96314.81;4181343;28;20135;-68
2024/01/29 07:44:51;;;;;;;15.20;12.23;;;;;;;2.78;63.83;96316.59;4191247;28;20056;-68
2024/01/29 07:46:54;;;;;;;16.33;10.52;;;;;;;2.73;64.00;96318.56;4187709;28;20041;-68
2024/01/29 07:49:03;;;;;;;14.88;10.55;;;;;;;2.68;64.41;96320.50;4185582;28;20044;-70
2024/01/29 07:51:08;;;;;;;19.95;11.45;;;;;;;2.84;64.43;96313.72;4195807;28;20059;-69
2024/01/29 07:53:12;;;;;;;14.95;11.85;;;;;;;3.06;63.75;96315.28;4195159;28;20472;-69
2024/01/29 07:55:15;;;;;;;13.40;11.40;;;;;;;3.23;63.48;96312.72;4196198;28;20048;-69
2024/01/29 07:57:17;;;;;;;27.17;15.82;;;;;;;3.08;63.40;96318.66;4196635;28;20764;-71
2024/01/29 07:59:23;;;;;;;20.50;15.32;;;;;;;3.03;63.54;96324.06;4195082;28;20044;-70
2024/01/29 08:01:25;;;;;;;18.92;14.18;;;;;;;3.05;63.02;96321.38;4193457;28;20406;-70
2024/01/29 08:03:27;;;;;;;18.95;15.10;;;;;;;3.12;63.36;96332.28;4189303;28;20048;-69
2024/01/29 08:05:29;;;;;;;21.67;15.15;;;;;;;2.99;63.26;96329.44;4193550;28;20049;-70
2024/01/29 08:07:32;;;;;;;21.05;13.93;;;;;;;2.91;63.93;96331.56;4195037;28;20041;-70
2024/01/29 08:09:35;;;;;;;21.88;14.60;;;;;;;2.71;64.58;96333.34;4194070;28;20176;-72
2024/01/29 08:11:40;;;;;;;15.88;11.98;;;;;;;2.73;64.91;96335.81;4194866;28;20057;-70
2024/01/29 08:13:42;;;;;;;17.88;12.30;;;;;;;2.65;64.68;96337.03;4195225;28;20131;-70
2024/01/29 08:15:44;;;;;;;19.63;12.70;;;;;;;2.72;64.75;96337.59;4192213;28;20457;-69
2024/01/29 08:17:46;;;;;;;17.08;13.68;;;;;;;2.70;65.03;96344.56;4193781;28;20414;-69
2024/01/29 08:19:48;;;;;;;20.63;13.68;;;;;;;2.70;64.89;96347.16;4191383;28;20057;-71
2024/01/29 08:21:50;;;;;;;23.38;13.90;;;;;;;2.81;64.82;96342.31;4195671;28;20055;-71
2024/01/29 08:23:52;;;;;;;16.90;12.63;;;;;;;2.94;64.71;96339.16;4196211;28;20441;-70
2024/01/29 08:25:55;;;;;;;22.13;13.18;;;;;;;3.04;63.99;96345.59;4188584;28;20132;-71
2024/01/29 08:27:57;;;;;;;25.45;15.50;;;;;;;3.04;63.66;96353.38;4196433;28;20131;-70
2024/01/29 08:29:59;;;;;;;21.35;15.65;;;;;;;3.11;63.50;96346.97;4188971;28;20048;-69
2024/01/29 08:32:01;;;;;;;23.60;15.30;;;;;;;3.07;63.56;96358.38;4193526;28;20489;-69
2024/01/29 08:34:05;;;;;;;37.28;21.55;;;;;;;3.12;63.84;96353.84;4191951;28;20044;-72
2024/01/29 08:36:07;;;;;;;30.40;21.30;;;;;;;3.20;63.86;96356.88;4196694;28;20135;-69
2024/01/29 08:38:09;;;;;;;22.75;17.13;;;;;;;3.22;63.82;96362.00;4191423;28;20048;-69
2024/01/29 08:40:13;;;;;;;23.38;16.02;;;;;;;3.24;63.03;96353.25;4192042;28;20478;-71
2024/01/29 08:42:16;;;;;;;38.22;22.00;;;;;;;3.13;63.13;96352.91;4194350;28;20221;-68
2024/01/29 08:44:18;;;;;;;25.08;16.23;;;;;;;3.17;63.26;96359.63;4189859;28;20056;-69
2024/01/29 08:46:20;;;;;;;46.03;22.88;;;;;;;3.11;63.14;96362.50;4195070;28;20051;-67
2024/01/29 08:48:24;;;;;;;38.40;21.38;;;;;;;2.99;64.28;96371.72;4194816;28;20056;-71
2024/01/29 08:50:26;;;;;;;32.97;19.65;;;;;;;3.15;64.40;96358.88;4187198;28;20084;-69
2024/01/29 08:52:28;;;;;;;23.38;15.43;;;;;;;3.36;63.41;96361.34;4195052;28;20052;-71
2024/01/29 08:54:29;;;;;;;16.58;12.93;;;;;;;3.51;63.25;96354.56;4186064;28;20354;-69
2024/01/29 08:56:31;;;;;;;21.45;14.88;;;;;;;3.68;62.47;96363.19;4189557;28;20053;-72
2024/01/29 08:58:35;;;;;;;28.48;17.30;;;;;;;3.76;61.09;96361.97;4183814;28;20061;-70
2024/01/29 09:00:37;;;;;;;22.92;16.00;;;;;;;3.84;61.49;96357.25;4185273;28;20041;-70
2024/01/29 09:02:39;;;;;;;33.47;22.88;;;;;;;3.90;61.32;96360.38;4189434;28;20076;-69
2024/01/29 09:04:41;;;;;;;23.38;16.33;;;;;;;4.00;61.31;96357.28;4185659;28;20041;-70
2024/01/29 09:06:45;;;;;;;17.02;12.57;;;;;;;4.00;60.33;96365.06;4191270;28;20523;-70
2024/01/29 09:08:49;;;;;;;17.45;12.90;;;;;;;4.01;60.04;96364.19;4190018;28;20066;-71
2024/01/29 09:10:51;;;;;;;15.07;11.93;;;;;;;3.95;60.01;96361.88;4189817;28;20620;-71
2024/01/29 09:12:54;;;;;;;18.52;12.52;;;;;;;3.77;60.36;96358.47;4191271;28;20552;-70
2024/01/29 09:14:56;;;;;;;18.00;11.93;;;;;;;3.71;60.80;96364.78;4190570;28;20169;-69
2024/01/29 09:16:57;;;;;;;18.48;10.60;;;;;;;3.76;60.50;96365.41;4189947;28;20104;-70
2024/01/29 09:18:59;;;;;;;18.02;11.35;;;;;;;3.93;60.70;96356.78;4193425;28;20336;-68
2024/01/29 09:21:01;;;;;;;14.15;11.18;;;;;;;4.14;60.31;96359.19;4180892;28;20383;-69
2024/01/29 09:23:03;;;;;;;17.98;11.88;;;;;;;4.21;59.75;96365.75;4196114;28;20119;-72
2024/01/29 09:25:12;;;;;;;14.57;12.02;;;;;;;4.25;59.75;96359.47;4194220;28;20151;-70
2024/01/29 09:27:15;;;;;;;18.75;12.15;;;;;;;4.35;59.77;96362.44;4195504;28;20044;-70
2024/01/29 09:29:18;;;;;;;20.83;12.48;;;;;;;4.49;58.87;96363.38;4181404;28;20511;-69
2024/01/29 09:31:20;;;;;;;17.58;11.00;;;;;;;4.53;58.58;96353.66;4178603;28;20458;-71
2024/01/29 09:33:23;;;;;;;19.35;10.93;;;;;;;4.40;58.23;96356.06;4184807;28;20074;-71
2024/01/29 09:35:25;;;;;;;16.35;8.77;;;;;;;4.00;56.59;96352.09;4195344;28;20535;-70
2024/01/29 09:37:27;;;;;;;13.35;8.85;;;;;;;3.87;56.94;96365.72;4195454;28;20048;-69